Terminal Aerodrome Forecast
Issued by NWS North Platte, NE

Home | Current Version | Previous Version | Text Only | Print | Product List | Glossary On
Versions: 1 2 3 4 5 6 7 8 9 10 11 12 13 14 15 16 17 18 19 20 21 22 23 24
000
FTUS43 KLBF 050500
TAFLBF
TAF
KLBF 050520Z 0506/0606 11008KT P6SM OVC007
     FM051000 11009KT P6SM -SHRA OVC005
      TEMPO 0513/0517 5SM SHRA BR OVC005
     FM051700 13013KT P6SM OVC012
      TEMPO 0519/0523 3SM +TSRA OVC015CB
     FM060000 13015KT P6SM OVC015
      TEMPO 0601/0605 3SM +TSRA OVC015CB=

USA.gov is the U.S. government's official web portal to all federal, state and local government web resources and services.